createdAt,value
2018-06-17T00:03:41.319Z,84.20
2018-06-17T00:08:43.502Z,83.00
2018-06-17T00:13:45.677Z,80.80
2018-06-17T00:18:47.852Z,86.70
2018-06-17T00:23:50.023Z,86.30
2018-06-17T00:28:52.398Z,88.30
2018-06-17T00:33:54.594Z,90.10
2018-06-17T00:38:56.761Z,86.70
2018-06-17T00:43:58.928Z,86.40
2018-06-17T00:49:01.115Z,87.00
2018-06-17T00:54:03.305Z,88.90
2018-06-17T00:59:05.474Z,88.10
2018-06-17T01:04:07.662Z,88.80
2018-06-17T01:09:09.816Z,89.10
2018-06-17T01:14:11.985Z,87.90
2018-06-17T01:19:14.302Z,88.40
2018-06-17T01:24:16.491Z,87.90
2018-06-17T01:29:18.795Z,87.50
2018-06-17T01:34:20.925Z,92.20
2018-06-17T01:39:23.073Z,94.20
2018-06-17T01:44:25.215Z,91.60
2018-06-17T01:49:27.362Z,96.20
2018-06-17T01:54:29.518Z,95.40
2018-06-17T01:59:31.705Z,93.40
2018-06-17T02:04:39.512Z,93.30
2018-06-17T02:09:47.562Z,91.60
2018-06-17T02:14:55.348Z,90.80
2018-06-17T02:19:57.495Z,95.60
2018-06-17T02:24:59.637Z,96.10
2018-06-17T02:30:01.791Z,96.30
2018-06-17T02:35:03.975Z,96.30
2018-06-17T02:40:06.211Z,95.00
2018-06-17T02:45:14.265Z,97.20
2018-06-17T02:50:22.150Z,99.90
2018-06-17T02:55:24.318Z,99.90
2018-06-17T03:00:26.482Z,97.10
2018-06-17T03:05:28.718Z,99.80
2018-06-17T03:10:30.910Z,99.90
2018-06-17T03:15:33.122Z,99.90
2018-06-17T03:20:35.295Z,99.90
2018-06-17T03:25:43.190Z,99.90
2018-06-17T03:30:51.305Z,99.90
2018-06-17T03:35:59.301Z,99.90
2018-06-17T03:41:01.462Z,99.90
2018-06-17T03:46:03.897Z,99.90
2018-06-17T03:51:06.239Z,99.90
2018-06-17T03:56:08.445Z,99.90
2018-06-17T04:01:10.634Z,98.80
2018-06-17T04:06:12.800Z,97.50
2018-06-17T04:11:14.998Z,95.80
2018-06-17T04:16:17.348Z,97.50
2018-06-17T04:21:19.520Z,92.70
2018-06-17T04:26:21.685Z,91.00
2018-06-17T04:31:23.879Z,91.20
2018-06-17T04:36:26.062Z,94.50
2018-06-17T04:41:28.238Z,93.00
2018-06-17T04:46:30.402Z,94.50
2018-06-17T04:51:32.547Z,94.20
2018-06-17T04:56:34.670Z,90.20
2018-06-17T05:01:37.074Z,85.10
2018-06-17T05:06:40.002Z,80.00
2018-06-17T05:11:42.182Z,77.50
2018-06-17T05:16:44.334Z,78.90
2018-06-17T05:21:46.582Z,77.90
2018-06-17T05:26:48.734Z,79.00
2018-06-17T05:31:50.914Z,75.40
2018-06-17T05:36:53.137Z,73.90
2018-06-17T05:41:55.305Z,72.60
2018-06-17T05:46:57.502Z,74.00
2018-06-17T05:51:59.723Z,72.80
2018-06-17T05:57:01.902Z,68.90
2018-06-17T06:02:04.767Z,67.60
2018-06-17T06:07:07.197Z,65.90
2018-06-17T06:12:09.557Z,62.60
2018-06-17T06:17:11.734Z,60.40
2018-06-17T06:22:13.874Z,59.80
2018-06-17T06:27:16.031Z,57.10
2018-06-17T06:32:18.229Z,58.50
2018-06-17T06:37:20.507Z,52.90
2018-06-17T06:42:22.631Z,51.30
2018-06-17T06:47:24.775Z,51.10
2018-06-17T06:52:26.922Z,47.70
2018-06-17T06:57:29.095Z,49.00
2018-06-17T07:02:42.865Z,49.00
2018-06-17T07:08:56.749Z,53.10
2018-06-17T07:13:58.938Z,54.30
2018-06-17T07:19:01.166Z,49.90
2018-06-17T07:24:03.893Z,48.50
2018-06-17T07:29:18.133Z,48.20
2018-06-17T07:34:20.315Z,46.90
2018-06-17T07:41:38.318Z,43.80
2018-06-17T07:46:40.482Z,46.80
2018-06-17T07:52:53.025Z,46.90
2018-06-17T07:57:55.222Z,44.30
2018-06-17T08:03:03.734Z,41.90
2018-06-17T08:08:09.435Z,41.90
2018-06-17T08:13:11.694Z,44.70
2018-06-17T08:18:13.916Z,40.70
2018-06-17T08:23:16.248Z,41.30
2018-06-17T08:28:18.482Z,41.00
2018-06-17T08:33:20.645Z,42.30
2018-06-17T08:38:22.835Z,41.80
2018-06-17T08:43:25.022Z,42.00
2018-06-17T08:48:27.330Z,42.70
2018-06-17T08:53:29.509Z,43.50
2018-06-17T08:58:31.681Z,41.40
2018-06-17T09:03:33.992Z,40.20
2018-06-17T09:08:36.166Z,40.00
2018-06-17T09:13:38.333Z,40.60
2018-06-17T09:18:40.576Z,42.20
2018-06-17T09:23:42.810Z,42.10
2018-06-17T09:28:45.024Z,42.90
2018-06-17T09:33:47.310Z,42.20
2018-06-17T09:38:49.568Z,39.60
2018-06-17T09:43:51.774Z,39.10
2018-06-17T09:48:53.989Z,42.50
2018-06-17T09:53:56.267Z,43.40
2018-06-17T09:58:58.458Z,41.70
2018-06-17T10:04:00.707Z,42.30
2018-06-17T10:09:05.065Z,41.40
2018-06-17T10:14:07.189Z,42.10
2018-06-17T10:19:09.445Z,42.80
2018-06-17T10:24:11.722Z,41.70
2018-06-17T10:29:14.017Z,42.30
2018-06-17T10:34:16.242Z,43.70
2018-06-17T10:39:18.406Z,42.10
2018-06-17T10:44:20.583Z,42.90
2018-06-17T10:49:22.754Z,44.40
2018-06-17T10:54:25.027Z,42.10
2018-06-17T10:59:28.249Z,42.70
2018-06-17T11:04:30.461Z,43.20
2018-06-17T11:09:32.637Z,39.00
2018-06-17T11:14:34.870Z,40.70
2018-06-17T11:19:37.110Z,40.30
2018-06-17T11:24:39.310Z,44.30
2018-06-17T11:29:41.650Z,42.30
2018-06-17T11:34:43.836Z,42.50
2018-06-17T11:39:46.433Z,43.50
2018-06-17T11:44:48.600Z,44.50
2018-06-17T11:49:51.398Z,43.70
2018-06-17T11:54:53.791Z,41.30
2018-06-17T11:59:56.002Z,41.20
2018-06-17T12:04:58.169Z,41.30
2018-06-17T12:10:00.336Z,40.80
2018-06-17T12:15:02.536Z,41.80
2018-06-17T12:20:04.758Z,40.10
2018-06-17T12:25:07.030Z,41.00
2018-06-17T12:30:09.202Z,41.60
2018-06-17T12:35:11.354Z,40.20
2018-06-17T12:40:13.478Z,39.30
2018-06-17T12:45:15.598Z,39.40
2018-06-17T12:50:17.730Z,38.50
2018-06-17T12:55:19.869Z,39.40
2018-06-17T13:00:22.046Z,40.40
2018-06-17T13:05:24.186Z,39.60
2018-06-17T13:10:26.313Z,38.70
2018-06-17T13:15:28.450Z,39.30
2018-06-17T13:20:30.590Z,41.00
2018-06-17T13:25:32.749Z,38.90
2018-06-17T13:30:34.915Z,39.30
2018-06-17T13:35:37.118Z,38.40
2018-06-17T13:40:39.283Z,39.00
2018-06-17T13:45:41.421Z,39.30
2018-06-17T13:50:43.593Z,40.90
2018-06-17T13:55:45.740Z,42.70
2018-06-17T14:00:47.930Z,42.00
2018-06-17T14:05:50.122Z,44.30
2018-06-17T14:10:52.525Z,43.80
2018-06-17T14:15:54.693Z,43.30
2018-06-17T14:20:56.839Z,42.80
2018-06-17T14:25:58.994Z,43.80
2018-06-17T14:31:01.497Z,42.80
2018-06-17T14:36:03.738Z,43.60
2018-06-17T14:41:11.977Z,43.20
2018-06-17T14:46:19.821Z,42.20
2018-06-17T14:51:27.818Z,43.80
2018-06-17T14:56:30.003Z,44.10
2018-06-17T15:01:32.193Z,42.20
2018-06-17T15:06:34.384Z,42.00
2018-06-17T15:11:36.578Z,43.30
2018-06-17T15:16:38.799Z,42.90
2018-06-17T15:21:40.950Z,44.10
2018-06-17T15:26:43.246Z,44.70
2018-06-17T15:31:51.193Z,44.50
2018-06-17T15:36:59.066Z,45.30
